sensor_id;sensor_type;location;lat;lon;timestamp;temperature;humidity
13091;DHT22;6611;52.604;13.438;2022-09-01T00:00:11;15.22;76.76
13091;DHT22;6611;52.604;13.438;2022-09-01T00:05:14;15.19;76.46
13091;DHT22;6611;52.604;13.438;2022-09-01T00:10:17;15.18;76.65
13091;DHT22;6611;52.604;13.438;2022-09-01T00:15:18;15.12;76.55
13091;DHT22;6611;52.604;13.438;2022-09-01T00:20:20;15.07;76.56
13091;DHT22;6611;52.604;13.438;2022-09-01T00:25:23;14.98;76.72
13091;DHT22;6611;52.604;13.438;2022-09-01T00:30:25;14.91;76.76
13091;DHT22;6611;52.604;13.438;2022-09-01T00:35:27;14.83;76.97
13091;DHT22;6611;52.604;13.438;2022-09-01T00:40:30;14.76;76.82
13091;DHT22;6611;52.604;13.438;2022-09-01T00:45:32;14.66;76.93
13091;DHT22;6611;52.604;13.438;2022-09-01T00:50:34;14.55;77.69
13091;DHT22;6611;52.604;13.438;2022-09-01T00:55:38;14.46;78.04
13091;DHT22;6611;52.604;13.438;2022-09-01T01:00:40;14.42;78.45
13091;DHT22;6611;52.604;13.438;2022-09-01T01:05:44;14.39;78.35
13091;DHT22;6611;52.604;13.438;2022-09-01T01:10:54;14.35;78.52
13091;DHT22;6611;52.604;13.438;2022-09-01T01:15:56;14.39;78.22
13091;DHT22;6611;52.604;13.438;2022-09-01T01:21:01;14.28;78.99
13091;DHT22;6611;52.604;13.438;2022-09-01T01:26:23;14.28;78.80
13091;DHT22;6611;52.604;13.438;2022-09-01T01:31:25;14.29;79.04
13091;DHT22;6611;52.604;13.438;2022-09-01T01:36:28;14.26;79.21
13091;DHT22;6611;52.604;13.438;2022-09-01T01:41:34;14.30;79.28
13091;DHT22;6611;52.604;13.438;2022-09-01T01:46:41;14.25;79.33
13091;DHT22;6611;52.604;13.438;2022-09-01T01:51:43;14.28;79.33
13091;DHT22;6611;52.604;13.438;2022-09-01T01:56:46;14.25;79.34
13091;DHT22;6611;52.604;13.438;2022-09-01T02:01:47;14.22;79.16
13091;DHT22;6611;52.604;13.438;2022-09-01T02:06:50;14.19;78.99
13091;DHT22;6611;52.604;13.438;2022-09-01T02:11:53;14.08;79.40
13091;DHT22;6611;52.604;13.438;2022-09-01T02:16:57;14.01;79.61
13091;DHT22;6611;52.604;13.438;2022-09-01T02:22:00;13.95;79.83
13091;DHT22;6611;52.604;13.438;2022-09-01T02:27:03;13.85;80.35
13091;DHT22;6611;52.604;13.438;2022-09-01T02:32:05;13.83;80.67
13091;DHT22;6611;52.604;13.438;2022-09-01T02:37:07;13.80;80.28
13091;DHT22;6611;52.604;13.438;2022-09-01T02:42:10;13.67;80.54
13091;DHT22;6611;52.604;13.438;2022-09-01T02:47:14;13.56;80.98
13091;DHT22;6611;52.604;13.438;2022-09-01T02:52:15;13.45;81.00
13091;DHT22;6611;52.604;13.438;2022-09-01T02:57:21;13.35;81.00
13091;DHT22;6611;52.604;13.438;2022-09-01T03:02:23;13.24;81.15
13091;DHT22;6611;52.604;13.438;2022-09-01T03:07:27;13.16;80.99
13091;DHT22;6611;52.604;13.438;2022-09-01T03:12:31;13.08;81.15
13091;DHT22;6611;52.604;13.438;2022-09-01T03:17:32;13.05;81.18
13091;DHT22;6611;52.604;13.438;2022-09-01T03:22:36;12.88;82.05
13091;DHT22;6611;52.604;13.438;2022-09-01T03:27:39;12.90;81.67
13091;DHT22;6611;52.604;13.438;2022-09-01T03:32:40;12.76;82.18
13091;DHT22;6611;52.604;13.438;2022-09-01T03:37:42;12.69;82.55
13091;DHT22;6611;52.604;13.438;2022-09-01T03:42:45;12.63;82.58
13091;DHT22;6611;52.604;13.438;2022-09-01T03:47:47;12.60;82.56
13091;DHT22;6611;52.604;13.438;2022-09-01T03:52:51;12.60;82.35
13091;DHT22;6611;52.604;13.438;2022-09-01T03:57:57;12.50;82.42
13091;DHT22;6611;52.604;13.438;2022-09-01T04:02:59;12.43;82.38
13091;DHT22;6611;52.604;13.438;2022-09-01T04:08:03;12.42;82.60
13091;DHT22;6611;52.604;13.438;2022-09-01T04:13:06;12.35;82.81
13091;DHT22;6611;52.604;13.438;2022-09-01T04:18:11;12.32;82.65
13091;DHT22;6611;52.604;13.438;2022-09-01T04:23:20;12.27;83.27
13091;DHT22;6611;52.604;13.438;2022-09-01T04:28:31;12.21;83.31
13091;DHT22;6611;52.604;13.438;2022-09-01T04:33:36;12.25;83.23
13091;DHT22;6611;52.604;13.438;2022-09-01T04:38:39;12.27;83.28
13091;DHT22;6611;52.604;13.438;2022-09-01T04:43:42;12.34;82.90
13091;DHT22;6611;52.604;13.438;2022-09-01T04:48:44;12.31;82.92
13091;DHT22;6611;52.604;13.438;2022-09-01T04:53:46;12.35;83.00
13091;DHT22;6611;52.604;13.438;2022-09-01T04:58:51;12.28;83.29
13091;DHT22;6611;52.604;13.438;2022-09-01T05:03:55;12.38;83.44
13091;DHT22;6611;52.604;13.438;2022-09-01T05:09:00;12.53;83.39
13091;DHT22;6611;52.604;13.438;2022-09-01T05:14:03;12.96;82.60
13091;DHT22;6611;52.604;13.438;2022-09-01T05:19:06;13.28;81.30
13091;DHT22;6611;52.604;13.438;2022-09-01T05:24:15;13.48;80.88
13091;DHT22;6611;52.604;13.438;2022-09-01T05:29:19;13.76;79.84
13091;DHT22;6611;52.604;13.438;2022-09-01T05:34:21;13.97;79.29
13091;DHT22;6611;52.604;13.438;2022-09-01T05:39:26;14.18;78.54
13091;DHT22;6611;52.604;13.438;2022-09-01T05:44:29;14.32;78.29
13091;DHT22;6611;52.604;13.438;2022-09-01T05:49:31;14.30;78.52
13091;DHT22;6611;52.604;13.438;2022-09-01T05:54:33;14.39;78.84
13091;DHT22;6611;52.604;13.438;2022-09-01T05:59:36;14.70;78.16
13091;DHT22;6611;52.604;13.438;2022-09-01T06:04:40;14.74;78.20
13091;DHT22;6611;52.604;13.438;2022-09-01T06:09:45;14.97;77.65
13091;DHT22;6611;52.604;13.438;2022-09-01T06:14:49;15.26;77.07
13091;DHT22;6611;52.604;13.438;2022-09-01T06:19:53;15.49;76.63
13091;DHT22;6611;52.604;13.438;2022-09-01T06:24:55;15.76;75.83
13091;DHT22;6611;52.604;13.438;2022-09-01T06:30:00;16.00;75.16
13091;DHT22;6611;52.604;13.438;2022-09-01T06:35:03;16.30;74.75
13091;DHT22;6611;52.604;13.438;2022-09-01T06:40:09;16.42;73.99
13091;DHT22;6611;52.604;13.438;2022-09-01T06:45:19;16.57;72.43
13091;DHT22;6611;52.604;13.438;2022-09-01T06:50:21;16.75;72.50
13091;DHT22;6611;52.604;13.438;2022-09-01T06:55:23;17.02;71.64
13091;DHT22;6611;52.604;13.438;2022-09-01T07:00:26;17.29;71.81
13091;DHT22;6611;52.604;13.438;2022-09-01T07:05:28;17.54;71.91
13091;DHT22;6611;52.604;13.438;2022-09-01T07:10:30;17.67;70.36
13091;DHT22;6611;52.604;13.438;2022-09-01T07:15:37;17.98;68.56
13091;DHT22;6611;52.604;13.438;2022-09-01T07:20:40;18.16;67.99
13091;DHT22;6611;52.604;13.438;2022-09-01T07:25:44;18.43;68.10
13091;DHT22;6611;52.604;13.438;2022-09-01T07:30:50;18.59;67.24
13091;DHT22;6611;52.604;13.438;2022-09-01T07:35:52;18.78;65.22
13091;DHT22;6611;52.604;13.438;2022-09-01T07:40:56;18.88;63.45
13091;DHT22;6611;52.604;13.438;2022-09-01T07:46:03;18.96;65.75
13091;DHT22;6611;52.604;13.438;2022-09-01T07:51:06;19.12;66.03
13091;DHT22;6611;52.604;13.438;2022-09-01T07:56:09;19.31;64.92
13091;DHT22;6611;52.604;13.438;2022-09-01T08:01:13;19.60;64.04
13091;DHT22;6611;52.604;13.438;2022-09-01T08:06:19;19.74;62.83
13091;DHT22;6611;52.604;13.438;2022-09-01T08:11:23;19.68;64.30
13091;DHT22;6611;52.604;13.438;2022-09-01T08:16:27;19.64;62.64
13091;DHT22;6611;52.604;13.438;2022-09-01T08:21:29;19.75;63.00
13091;DHT22;6611;52.604;13.438;2022-09-01T08:26:31;19.89;62.47
13091;DHT22;6611;52.604;13.438;2022-09-01T08:31:34;19.96;61.39
13091;DHT22;6611;52.604;13.438;2022-09-01T08:36:36;20.04;60.83
13091;DHT22;6611;52.604;13.438;2022-09-01T08:41:41;20.10;60.90
13091;DHT22;6611;52.604;13.438;2022-09-01T08:46:45;20.12;59.29
13091;DHT22;6611;52.604;13.438;2022-09-01T08:51:49;20.33;60.03
13091;DHT22;6611;52.604;13.438;2022-09-01T08:56:56;20.44;59.65
13091;DHT22;6611;52.604;13.438;2022-09-01T09:02:08;20.53;57.76
13091;DHT22;6611;52.604;13.438;2022-09-01T09:07:22;20.55;59.54
13091;DHT22;6611;52.604;13.438;2022-09-01T09:12:35;20.54;59.59
13091;DHT22;6611;52.604;13.438;2022-09-01T09:17:46;20.60;57.40
13091;DHT22;6611;52.604;13.438;2022-09-01T09:22:50;20.65;55.97
13091;DHT22;6611;52.604;13.438;2022-09-01T09:27:52;20.61;56.41
13091;DHT22;6611;52.604;13.438;2022-09-01T09:32:56;20.57;59.91
13091;DHT22;6611;52.604;13.438;2022-09-01T09:38:15;20.37;58.57
13091;DHT22;6611;52.604;13.438;2022-09-01T09:43:22;20.30;56.47
13091;DHT22;6611;52.604;13.438;2022-09-01T09:48:29;20.43;53.13
13091;DHT22;6611;52.604;13.438;2022-09-01T09:53:33;20.20;52.47
13091;DHT22;6611;52.604;13.438;2022-09-01T09:58:37;20.13;53.87
13091;DHT22;6611;52.604;13.438;2022-09-01T10:03:44;20.30;55.41
13091;DHT22;6611;52.604;13.438;2022-09-01T10:08:48;20.63;53.61
13091;DHT22;6611;52.604;13.438;2022-09-01T10:13:51;20.71;54.62
13091;DHT22;6611;52.604;13.438;2022-09-01T10:18:55;20.98;54.87
13091;DHT22;6611;52.604;13.438;2022-09-01T10:24:15;20.91;52.35
13091;DHT22;6611;52.604;13.438;2022-09-01T10:29:21;20.96;48.71
13091;DHT22;6611;52.604;13.438;2022-09-01T10:34:26;21.23;49.44
13091;DHT22;6611;52.604;13.438;2022-09-01T10:39:30;20.99;50.64
13091;DHT22;6611;52.604;13.438;2022-09-01T10:44:33;20.58;49.94
13091;DHT22;6611;52.604;13.438;2022-09-01T10:55:03;21.13;49.88
13091;DHT22;6611;52.604;13.438;2022-09-01T11:06:01;20.78;48.18
13091;DHT22;6611;52.604;13.438;2022-09-01T11:11:14;21.06;49.06
13091;DHT22;6611;52.604;13.438;2022-09-01T11:16:34;21.79;50.74
13091;DHT22;6611;52.604;13.438;2022-09-01T11:21:36;22.30;45.42
13091;DHT22;6611;52.604;13.438;2022-09-01T11:26:46;22.76;41.73
13091;DHT22;6611;52.604;13.438;2022-09-01T11:31:49;22.47;43.45
13091;DHT22;6611;52.604;13.438;2022-09-01T11:36:54;22.08;47.04
13091;DHT22;6611;52.604;13.438;2022-09-01T11:42:01;21.85;43.98
13091;DHT22;6611;52.604;13.438;2022-09-01T11:47:06;21.54;47.52
13091;DHT22;6611;52.604;13.438;2022-09-01T11:52:14;21.20;48.86
13091;DHT22;6611;52.604;13.438;2022-09-01T11:57:21;21.13;48.67
13091;DHT22;6611;52.604;13.438;2022-09-01T12:02:25;21.46;50.78
13091;DHT22;6611;52.604;13.438;2022-09-01T12:07:37;21.33;51.25
13091;DHT22;6611;52.604;13.438;2022-09-01T12:12:41;21.24;50.18
13091;DHT22;6611;52.604;13.438;2022-09-01T12:17:42;21.44;47.51
13091;DHT22;6611;52.604;13.438;2022-09-01T12:22:44;21.93;45.28
13091;DHT22;6611;52.604;13.438;2022-09-01T12:27:47;22.27;48.51
13091;DHT22;6611;52.604;13.438;2022-09-01T12:32:49;22.23;48.53
13091;DHT22;6611;52.604;13.438;2022-09-01T12:37:51;21.71;46.67
13091;DHT22;6611;52.604;13.438;2022-09-01T12:42:54;21.98;49.34
13091;DHT22;6611;52.604;13.438;2022-09-01T12:47:55;22.19;45.88
13091;DHT22;6611;52.604;13.438;2022-09-01T12:52:59;22.39;46.08
13091;DHT22;6611;52.604;13.438;2022-09-01T12:58:04;22.72;44.97
13091;DHT22;6611;52.604;13.438;2022-09-01T13:03:11;22.94;44.39
13091;DHT22;6611;52.604;13.438;2022-09-01T13:08:17;22.32;44.11
13091;DHT22;6611;52.604;13.438;2022-09-01T13:13:21;22.03;48.91
13091;DHT22;6611;52.604;13.438;2022-09-01T13:18:24;21.73;48.54
13091;DHT22;6611;52.604;13.438;2022-09-01T13:23:26;21.48;48.41
13091;DHT22;6611;52.604;13.438;2022-09-01T13:28:29;21.43;51.19
13091;DHT22;6611;52.604;13.438;2022-09-01T13:33:32;21.39;51.04
13091;DHT22;6611;52.604;13.438;2022-09-01T13:38:34;21.46;49.06
13091;DHT22;6611;52.604;13.438;2022-09-01T13:43:37;21.50;50.30
13091;DHT22;6611;52.604;13.438;2022-09-01T13:48:39;21.51;50.71
13091;DHT22;6611;52.604;13.438;2022-09-01T13:53:41;21.53;48.39
13091;DHT22;6611;52.604;13.438;2022-09-01T13:58:44;21.43;49.11
13091;DHT22;6611;52.604;13.438;2022-09-01T14:03:48;21.40;49.13
13091;DHT22;6611;52.604;13.438;2022-09-01T14:08:50;21.47;48.96
13091;DHT22;6611;52.604;13.438;2022-09-01T14:13:53;21.64;47.40
13091;DHT22;6611;52.604;13.438;2022-09-01T14:18:54;21.73;47.63
13091;DHT22;6611;52.604;13.438;2022-09-01T14:23:56;21.86;45.32
13091;DHT22;6611;52.604;13.438;2022-09-01T14:29:00;21.59;45.03
13091;DHT22;6611;52.604;13.438;2022-09-01T14:34:02;21.51;48.49
13091;DHT22;6611;52.604;13.438;2022-09-01T14:39:04;21.57;49.18
13091;DHT22;6611;52.604;13.438;2022-09-01T14:44:07;21.46;50.77
13091;DHT22;6611;52.604;13.438;2022-09-01T14:49:08;21.54;51.06
13091;DHT22;6611;52.604;13.438;2022-09-01T14:54:11;21.91;50.69
13091;DHT22;6611;52.604;13.438;2022-09-01T14:59:14;22.12;45.57
13091;DHT22;6611;52.604;13.438;2022-09-01T15:04:17;22.23;47.21
13091;DHT22;6611;52.604;13.438;2022-09-01T15:09:19;22.12;47.34
13091;DHT22;6611;52.604;13.438;2022-09-01T15:14:23;22.05;45.98
13091;DHT22;6611;52.604;13.438;2022-09-01T15:19:24;21.93;48.39
13091;DHT22;6611;52.604;13.438;2022-09-01T15:24:26;21.98;47.26
13091;DHT22;6611;52.604;13.438;2022-09-01T15:29:29;21.98;47.82
13091;DHT22;6611;52.604;13.438;2022-09-01T15:34:33;21.77;50.10
13091;DHT22;6611;52.604;13.438;2022-09-01T15:39:34;21.67;47.45
13091;DHT22;6611;52.604;13.438;2022-09-01T15:44:39;21.44;49.30
13091;DHT22;6611;52.604;13.438;2022-09-01T15:49:41;21.36;48.78
13091;DHT22;6611;52.604;13.438;2022-09-01T15:54:42;21.16;49.69
13091;DHT22;6611;52.604;13.438;2022-09-01T15:59:45;20.92;52.04
13091;DHT22;6611;52.604;13.438;2022-09-01T16:04:47;20.89;50.24
13091;DHT22;6611;52.604;13.438;2022-09-01T16:09:48;20.85;52.65
13091;DHT22;6611;52.604;13.438;2022-09-01T16:14:53;20.75;50.07
13091;DHT22;6611;52.604;13.438;2022-09-01T16:19:59;20.63;52.67
13091;DHT22;6611;52.604;13.438;2022-09-01T16:25:07;20.25;53.44
13091;DHT22;6611;52.604;13.438;2022-09-01T16:30:17;20.10;55.61
13091;DHT22;6611;52.604;13.438;2022-09-01T16:35:22;19.98;54.11
13091;DHT22;6611;52.604;13.438;2022-09-01T16:40:34;19.86;55.85
13091;DHT22;6611;52.604;13.438;2022-09-01T16:45:49;19.68;56.62
13091;DHT22;6611;52.604;13.438;2022-09-01T16:50:59;19.65;58.34
13091;DHT22;6611;52.604;13.438;2022-09-01T16:56:04;19.58;56.19
13091;DHT22;6611;52.604;13.438;2022-09-01T17:01:21;19.45;58.52
13091;DHT22;6611;52.604;13.438;2022-09-01T17:06:28;19.20;59.76
13091;DHT22;6611;52.604;13.438;2022-09-01T17:11:34;19.08;59.52
13091;DHT22;6611;52.604;13.438;2022-09-01T17:16:41;18.89;60.65
13091;DHT22;6611;52.604;13.438;2022-09-01T17:21:46;18.75;61.49
13091;DHT22;6611;52.604;13.438;2022-09-01T17:26:54;18.65;59.31
13091;DHT22;6611;52.604;13.438;2022-09-01T17:32:02;18.57;60.83
13091;DHT22;6611;52.604;13.438;2022-09-01T17:37:17;18.44;61.76
13091;DHT22;6611;52.604;13.438;2022-09-01T17:42:28;18.22;62.78
13091;DHT22;6611;52.604;13.438;2022-09-01T17:47:38;18.01;63.75
13091;DHT22;6611;52.604;13.438;2022-09-01T17:52:50;17.85;63.79
13091;DHT22;6611;52.604;13.438;2022-09-01T17:57:57;17.69;64.96
13091;DHT22;6611;52.604;13.438;2022-09-01T18:03:17;17.56;65.26
13091;DHT22;6611;52.604;13.438;2022-09-01T18:08:29;17.40;65.69
13091;DHT22;6611;52.604;13.438;2022-09-01T18:13:35;17.22;66.08
13091;DHT22;6611;52.604;13.438;2022-09-01T18:18:41;17.09;66.40
13091;DHT22;6611;52.604;13.438;2022-09-01T18:23:44;16.95;67.11
13091;DHT22;6611;52.604;13.438;2022-09-01T18:28:50;16.85;67.55
13091;DHT22;6611;52.604;13.438;2022-09-01T18:34:04;16.68;67.92
13091;DHT22;6611;52.604;13.438;2022-09-01T18:39:11;16.68;67.88
13091;DHT22;6611;52.604;13.438;2022-09-01T18:44:22;16.56;68.31
13091;DHT22;6611;52.604;13.438;2022-09-01T18:49:30;16.45;68.76
13091;DHT22;6611;52.604;13.438;2022-09-01T18:54:40;16.28;69.52
13091;DHT22;6611;52.604;13.438;2022-09-01T18:59:53;16.15;69.83
13091;DHT22;6611;52.604;13.438;2022-09-01T19:05:07;16.02;70.15
13091;DHT22;6611;52.604;13.438;2022-09-01T19:10:15;15.90;70.77
13091;DHT22;6611;52.604;13.438;2022-09-01T19:15:23;15.71;71.22
13091;DHT22;6611;52.604;13.438;2022-09-01T19:20:38;15.57;71.50
13091;DHT22;6611;52.604;13.438;2022-09-01T19:25:41;15.46;71.91
13091;DHT22;6611;52.604;13.438;2022-09-01T19:30:45;15.35;72.33
13091;DHT22;6611;52.604;13.438;2022-09-01T19:35:54;15.29;72.42
13091;DHT22;6611;52.604;13.438;2022-09-01T19:41:03;15.22;72.79
13091;DHT22;6611;52.604;13.438;2022-09-01T19:46:16;15.19;72.67
13091;DHT22;6611;52.604;13.438;2022-09-01T19:51:23;15.18;72.70
13091;DHT22;6611;52.604;13.438;2022-09-01T19:56:31;15.16;72.78
13091;DHT22;6611;52.604;13.438;2022-09-01T20:01:40;15.05;73.30
13091;DHT22;6611;52.604;13.438;2022-09-01T20:06:47;14.92;73.69
13091;DHT22;6611;52.604;13.438;2022-09-01T20:11:52;14.77;74.52
13091;DHT22;6611;52.604;13.438;2022-09-01T20:16:59;14.67;75.15
13091;DHT22;6611;52.604;13.438;2022-09-01T20:22:21;14.59;75.34
13091;DHT22;6611;52.604;13.438;2022-09-01T20:27:30;14.52;75.42
13091;DHT22;6611;52.604;13.438;2022-09-01T20:32:40;14.50;75.36
13091;DHT22;6611;52.604;13.438;2022-09-01T20:37:45;14.42;75.78
13091;DHT22;6611;52.604;13.438;2022-09-01T20:42:58;14.38;76.02
13091;DHT22;6611;52.604;13.438;2022-09-01T20:48:04;14.29;76.24
13091;DHT22;6611;52.604;13.438;2022-09-01T20:53:27;14.24;76.41
13091;DHT22;6611;52.604;13.438;2022-09-01T20:58:35;14.00;77.00
13091;DHT22;6611;52.604;13.438;2022-09-01T21:03:40;13.93;77.22
13091;DHT22;6611;52.604;13.438;2022-09-01T21:08:47;13.95;77.31
13091;DHT22;6611;52.604;13.438;2022-09-01T21:13:56;13.98;77.19
13091;DHT22;6611;52.604;13.438;2022-09-01T21:19:05;13.90;77.60
13091;DHT22;6611;52.604;13.438;2022-09-01T21:24:11;13.88;77.42
13091;DHT22;6611;52.604;13.438;2022-09-01T21:29:24;13.80;77.40
13091;DHT22;6611;52.604;13.438;2022-09-01T21:34:27;13.69;77.96
13091;DHT22;6611;52.604;13.438;2022-09-01T21:39:30;13.53;78.28
13091;DHT22;6611;52.604;13.438;2022-09-01T21:44:32;13.55;78.08
13091;DHT22;6611;52.604;13.438;2022-09-01T21:49:34;13.50;78.27
13091;DHT22;6611;52.604;13.438;2022-09-01T21:54:37;13.50;78.29
13091;DHT22;6611;52.604;13.438;2022-09-01T21:59:39;13.46;78.41
13091;DHT22;6611;52.604;13.438;2022-09-01T22:04:40;13.43;78.40
13091;DHT22;6611;52.604;13.438;2022-09-01T22:09:44;13.38;78.77
13091;DHT22;6611;52.604;13.438;2022-09-01T22:14:46;13.41;78.80
13091;DHT22;6611;52.604;13.438;2022-09-01T22:19:47;13.32;78.70
13091;DHT22;6611;52.604;13.438;2022-09-01T22:24:50;13.26;78.80
13091;DHT22;6611;52.604;13.438;2022-09-01T22:29:52;13.25;79.09
13091;DHT22;6611;52.604;13.438;2022-09-01T22:34:53;13.15;79.15
13091;DHT22;6611;52.604;13.438;2022-09-01T22:39:56;13.10;79.44
13091;DHT22;6611;52.604;13.438;2022-09-01T22:44:58;12.96;79.67
13091;DHT22;6611;52.604;13.438;2022-09-01T22:50:00;12.90;79.72
13091;DHT22;6611;52.604;13.438;2022-09-01T22:55:04;12.84;79.78
13091;DHT22;6611;52.604;13.438;2022-09-01T23:00:07;12.88;79.77
13091;DHT22;6611;52.604;13.438;2022-09-01T23:05:10;12.73;80.12
13091;DHT22;6611;52.604;13.438;2022-09-01T23:10:13;12.69;80.21
13091;DHT22;6611;52.604;13.438;2022-09-01T23:15:15;12.64;80.57
13091;DHT22;6611;52.604;13.438;2022-09-01T23:20:17;12.60;80.41
13091;DHT22;6611;52.604;13.438;2022-09-01T23:25:20;12.67;80.47
13091;DHT22;6611;52.604;13.438;2022-09-01T23:30:23;12.67;80.29
13091;DHT22;6611;52.604;13.438;2022-09-01T23:35:25;12.69;80.22
13091;DHT22;6611;52.604;13.438;2022-09-01T23:40:28;12.62;80.46
13091;DHT22;6611;52.604;13.438;2022-09-01T23:45:30;12.60;80.68
13091;DHT22;6611;52.604;13.438;2022-09-01T23:50:32;12.56;81.20
13091;DHT22;6611;52.604;13.438;2022-09-01T23:55:42;12.59;81.21
